Time;durP1;ratioP1;P1;durP2;ratioP2;P2;SDS_P1;SDS_P2;PMS_P1;PMS_P2;Temp;Humidity;BMP_temperature;BMP_pressure;BME280_temperature;BME280_humidity;BME280_pressure;Samples;Min_cycle;Max_cycle;Signal;HPM_P1;HPM_P2
2021/04/15 00:01:21;;;;;;;;;;;;;;;;;;5040081;28;19904;-67
2021/04/15 00:03:47;;;;;;;;;;;;;;;;;;5059209;28;19905;-67
2021/04/15 00:06:13;;;;;;;;;;;;;;;;;;5058866;28;19905;-68
2021/04/15 00:08:39;;;;;;;;;;;;;;;;;;5059125;28;19974;-62
2021/04/15 00:11:05;;;;;;;;;;;;;;;;;;5058479;28;19913;-69
2021/04/15 00:13:31;;;;;;;;;;;;;;;;;;5052644;28;19905;-67
2021/04/15 00:15:57;;;;;;;;;;;;;;;;;;5052439;28;19962;-68
2021/04/15 00:18:23;;;;;;;;;;;;;;;;;;5052832;28;20400;-68
2021/04/15 00:20:49;;;;;;;;;;;;;;;;;;5035363;28;19908;-69
2021/04/15 00:23:15;;;;;;;;;;;;;;;;;;5052895;28;19987;-68
2021/04/15 00:25:41;;;;;;;;;;;;;;;;;;5052591;28;19904;-69
2021/04/15 00:28:07;;;;;;;;;;;;;;;;;;5052207;28;19913;-66
2021/04/15 00:30:32;;;;;;;;;;;;;;;;;;5053523;28;19905;-69
2021/04/15 00:32:58;;;;;;;;;;;;;;;;;;5055063;28;19995;-69
2021/04/15 00:35:24;;;;;;;;;;;;;;;;;;5052365;28;19987;-68
2021/04/15 00:37:50;;;;;;;;;;;;;;;;;;5052251;28;20529;-67
2021/04/15 00:40:16;;;;;;;;;;;;;;;;;;5052584;28;19987;-68
2021/04/15 00:42:42;;;;;;;;;;;;;;;;;;5052212;28;19940;-69
2021/04/15 00:45:08;;;;;;;;;;;;;;;;;;5052048;28;19952;-68
2021/04/15 00:47:34;;;;;;;;;;;;;;;;;;5052023;28;19982;-61
2021/04/15 00:50:00;;;;;;;;;;;;;;;;;;5052185;28;20374;-68
2021/04/15 00:52:26;;;;;;;;;;;;;;;;;;5052041;28;19939;-68
2021/04/15 00:54:52;;;;;;;;;;;;;;;;;;5052119;28;19912;-66
2021/04/15 00:57:18;;;;;;;;;;;;;;;;;;5052837;28;19908;-68
2021/04/15 00:59:44;;;;;;;;;;;;;;;;;;5051762;28;19958;-68
2021/04/15 01:02:10;;;;;;;;;;;;;;;;;;5052612;28;19905;-68
2021/04/15 01:04:36;;;;;;;;;;;;;;;;;;5051848;28;19904;-68
2021/04/15 01:07:02;;;;;;;;;;;;;;;;;;5052333;28;19943;-68
2021/04/15 01:09:27;;;;;;;;;;;;;;;;;;5051881;28;19904;-68
2021/04/15 01:11:56;;;;;;;;;;;;;;;;;;5051937;28;19908;-69
2021/04/15 01:14:22;;;;;;;;;;;;;;;;;;5051729;28;19916;-69
2021/04/15 01:16:48;;;;;;;;;;;;;;;;;;5052088;28;19954;-68
2021/04/15 01:19:14;;;;;;;;;;;;;;;;;;5051773;28;19909;-68
2021/04/15 01:21:40;;;;;;;;;;;;;;;;;;5051684;28;20358;-65
2021/04/15 01:24:06;;;;;;;;;;;;;;;;;;5051964;28;20362;-68
2021/04/15 01:26:32;;;;;;;;;;;;;;;;;;5051731;28;19913;-67
2021/04/15 01:28:58;;;;;;;;;;;;;;;;;;5051795;28;19919;-67
2021/04/15 01:31:24;;;;;;;;;;;;;;;;;;5051788;28;19991;-67
2021/04/15 01:33:49;;;;;;;;;;;;;;;;;;5052278;28;20011;-68
2021/04/15 01:36:15;;;;;;;;;;;;;;;;;;5057527;28;20343;-67
2021/04/15 01:38:41;;;;;;;;;;;;;;;;;;5057621;28;19911;-67
2021/04/15 01:41:07;;;;;;;;;;;;;;;;;;5057102;28;19905;-67
2021/04/15 01:43:33;;;;;;;;;;;;;;;;;;5056706;28;19904;-70
2021/04/15 01:45:59;;;;;;;;;;;;;;;;;;5040025;28;19921;-67
2021/04/15 01:48:25;;;;;;;;;;;;;;;;;;5035370;28;20361;-67
2021/04/15 01:50:51;;;;;;;;;;;;;;;;;;5040682;28;20327;-66
2021/04/15 01:53:17;;;;;;;;;;;;;;;;;;5050157;28;20017;-67
2021/04/15 01:55:43;;;;;;;;;;;;;;;;;;5044671;28;20362;-67
2021/04/15 01:58:09;;;;;;;;;;;;;;;;;;5053872;28;19959;-67
2021/04/15 02:00:35;;;;;;;;;;;;;;;;;;5054482;28;19905;-68
2021/04/15 02:03:00;;;;;;;;;;;;;;;;;;5040581;28;19963;-63
2021/04/15 02:05:26;;;;;;;;;;;;;;;;;;5055763;28;19905;-67
2021/04/15 02:07:52;;;;;;;;;;;;;;;;;;5055062;28;19919;-66
2021/04/15 02:10:18;;;;;;;;;;;;;;;;;;5055170;28;19911;-67
2021/04/15 02:12:44;;;;;;;;;;;;;;;;;;5054921;28;19950;-66
2021/04/15 02:15:10;;;;;;;;;;;;;;;;;;5055068;28;19912;-64
2021/04/15 02:17:36;;;;;;;;;;;;;;;;;;5054748;28;20355;-69
2021/04/15 02:20:02;;;;;;;;;;;;;;;;;;5040575;28;19912;-67
2021/04/15 02:22:28;;;;;;;;;;;;;;;;;;5036467;28;20382;-66
2021/04/15 02:24:54;;;;;;;;;;;;;;;;;;5054548;28;19909;-67
2021/04/15 02:27:20;;;;;;;;;;;;;;;;;;5054308;28;20298;-67
2021/04/15 02:29:46;;;;;;;;;;;;;;;;;;5054393;28;20339;-67
2021/04/15 02:32:12;;;;;;;;;;;;;;;;;;5038606;28;19905;-68
2021/04/15 02:34:38;;;;;;;;;;;;;;;;;;5034664;28;19905;-67
2021/04/15 02:37:04;;;;;;;;;;;;;;;;;;5017114;28;20278;-68
2021/04/15 02:39:29;;;;;;;;;;;;;;;;;;5034113;28;20355;-67
2021/04/15 02:41:55;;;;;;;;;;;;;;;;;;5034889;28;19912;-67
2021/04/15 02:44:24;;;;;;;;;;;;;;;;;;5033801;28;19971;-68
2021/04/15 02:46:49;;;;;;;;;;;;;;;;;;5035757;28;20351;-67
2021/04/15 02:49:15;;;;;;;;;;;;;;;;;;5054180;28;19905;-67
2021/04/15 02:51:41;;;;;;;;;;;;;;;;;;5054138;28;19909;-66
2021/04/15 02:54:07;;;;;;;;;;;;;;;;;;5054228;28;19912;-69
2021/04/15 02:56:33;;;;;;;;;;;;;;;;;;5054164;28;19927;-67
2021/04/15 02:58:59;;;;;;;;;;;;;;;;;;5053718;28;20320;-66
2021/04/15 03:01:25;;;;;;;;;;;;;;;;;;5054182;28;19915;-67
2021/04/15 03:03:51;;;;;;;;;;;;;;;;;;5054185;28;19995;-66
2021/04/15 03:06:17;;;;;;;;;;;;;;;;;;5053838;28;19909;-66
2021/04/15 03:08:43;;;;;;;;;;;;;;;;;;5053732;28;19916;-68
2021/04/15 03:11:09;;;;;;;;;;;;;;;;;;5053676;28;19908;-69
2021/04/15 03:13:35;;;;;;;;;;;;;;;;;;5053978;28;19911;-68
2021/04/15 03:16:00;;;;;;;;;;;;;;;;;;5053556;28;19951;-67
2021/04/15 03:18:26;;;;;;;;;;;;;;;;;;5053728;28;19912;-67
2021/04/15 03:20:52;;;;;;;;;;;;;;;;;;5053715;28;19987;-67
2021/04/15 03:23:18;;;;;;;;;;;;;;;;;;5053496;28;20002;-66
2021/04/15 03:25:44;;;;;;;;;;;;;;;;;;5053432;28;19992;-62
2021/04/15 03:28:10;;;;;;;;;;;;;;;;;;5053303;28;20364;-65
2021/04/15 03:30:36;;;;;;;;;;;;;;;;;;5050993;28;20255;-67
2021/04/15 03:33:02;;;;;;;;;;;;;;;;;;5050218;28;19912;-67
2021/04/15 03:35:28;;;;;;;;;;;;;;;;;;5053445;28;19911;-67
2021/04/15 03:37:54;;;;;;;;;;;;;;;;;;5049286;28;19911;-68
2021/04/15 03:40:20;;;;;;;;;;;;;;;;;;5053047;28;19908;-65
2021/04/15 03:42:46;;;;;;;;;;;;;;;;;;5053542;28;20047;-68
2021/04/15 03:45:12;;;;;;;;;;;;;;;;;;5052831;28;19924;-66
2021/04/15 03:47:37;;;;;;;;;;;;;;;;;;5053074;28;19921;-68
2021/04/15 03:50:03;;;;;;;;;;;;;;;;;;5052848;28;20305;-68
2021/04/15 03:52:29;;;;;;;;;;;;;;;;;;5053204;28;20266;-68
2021/04/15 03:54:55;;;;;;;;;;;;;;;;;;5052820;28;19905;-67
2021/04/15 03:57:21;;;;;;;;;;;;;;;;;;5052738;28;19911;-63
2021/04/15 03:59:47;;;;;;;;;;;;;;;;;;5034646;28;19911;-68
2021/04/15 04:02:13;;;;;;;;;;;;;;;;;;5053125;28;20035;-68
2021/04/15 04:04:39;;;;;;;;;;;;;;;;;;5052562;28;19905;-69
2021/04/15 04:07:05;;;;;;;;;;;;;;;;;;5034598;28;19951;-67
2021/04/15 04:09:31;;;;;;;;;;;;;;;;;;5052570;28;19911;-68
2021/04/15 04:11:57;;;;;;;;;;;;;;;;;;5052733;28;19909;-68
2021/04/15 04:14:23;;;;;;;;;;;;;;;;;;5052653;28;19909;-65
2021/04/15 04:16:49;;;;;;;;;;;;;;;;;;5052127;28;19916;-67
2021/04/15 04:19:15;;;;;;;;;;;;;;;;;;5052816;28;19909;-66
2021/04/15 04:21:41;;;;;;;;;;;;;;;;;;5052588;28;19909;-67
2021/04/15 04:24:07;;;;;;;;;;;;;;;;;;5052760;28;19904;-67
2021/04/15 04:26:32;;;;;;;;;;;;;;;;;;5052225;28;19913;-67
2021/04/15 04:28:58;;;;;;;;;;;;;;;;;;5052747;28;20363;-67
2021/04/15 04:31:24;;;;;;;;;;;;;;;;;;5052438;28;19905;-67
2021/04/15 04:33:50;;;;;;;;;;;;;;;;;;5052463;28;19912;-60
2021/04/15 04:36:16;;;;;;;;;;;;;;;;;;5052371;28;19925;-68
2021/04/15 04:38:42;;;;;;;;;;;;;;;;;;5049290;28;20274;-67
2021/04/15 04:41:08;;;;;;;;;;;;;;;;;;5050951;28;19905;-67
2021/04/15 04:43:34;;;;;;;;;;;;;;;;;;5033861;28;19982;-65
2021/04/15 04:46:00;;;;;;;;;;;;;;;;;;5030945;28;20375;-67
2021/04/15 04:48:26;;;;;;;;;;;;;;;;;;5036174;28;19963;-67
2021/04/15 04:50:52;;;;;;;;;;;;;;;;;;5052192;28;19955;-67
2021/04/15 04:53:17;;;;;;;;;;;;;;;;;;5052671;28;19963;-67
2021/04/15 04:55:43;;;;;;;;;;;;;;;;;;5051927;28;19905;-68
2021/04/15 04:58:09;;;;;;;;;;;;;;;;;;5034748;28;19904;-68
2021/04/15 05:00:35;;;;;;;;;;;;;;;;;;5052131;28;19909;-66
2021/04/15 05:03:01;;;;;;;;;;;;;;;;;;5052250;28;19909;-68
2021/04/15 05:05:27;;;;;;;;;;;;;;;;;;5051927;28;19905;-66
2021/04/15 05:07:53;;;;;;;;;;;;;;;;;;5034101;28;19974;-67
2021/04/15 05:10:19;;;;;;;;;;;;;;;;;;5032445;28;19906;-66
2021/04/15 05:12:45;;;;;;;;;;;;;;;;;;5055945;28;19905;-67
2021/04/15 05:15:11;;;;;;;;;;;;;;;;;;5050897;28;19920;-68
2021/04/15 05:17:37;;;;;;;;;;;;;;;;;;5055581;28;19908;-69
2021/04/15 05:20:03;;;;;;;;;;;;;;;;;;5060686;28;19904;-69
2021/04/15 05:22:28;;;;;;;;;;;;;;;;;;5061514;28;19912;-67
2021/04/15 05:24:54;;;;;;;;;;;;;;;;;;5062148;28;20338;-66
2021/04/15 05:27:20;;;;;;;;;;;;;;;;;;5062121;28;20321;-69
2021/04/15 05:29:46;;;;;;;;;;;;;;;;;;5059328;28;20342;-69
2021/04/15 05:32:12;;;;;;;;;;;;;;;;;;5037877;28;19912;-66
2021/04/15 05:34:38;;;;;;;;;;;;;;;;;;5055626;28;19958;-70
2021/04/15 05:37:04;;;;;;;;;;;;;;;;;;5056128;28;19909;-68
2021/04/15 05:39:30;;;;;;;;;;;;;;;;;;5055640;28;19931;-67
2021/04/15 05:41:56;;;;;;;;;;;;;;;;;;5055284;28;19905;-67
2021/04/15 05:44:22;;;;;;;;;;;;;;;;;;5055401;28;19935;-66
2021/04/15 05:46:48;;;;;;;;;;;;;;;;;;5055433;28;19918;-67
2021/04/15 05:49:14;;;;;;;;;;;;;;;;;;5055489;28;19908;-67
2021/04/15 05:51:40;;;;;;;;;;;;;;;;;;5055636;28;19920;-67
2021/04/15 05:54:06;;;;;;;;;;;;;;;;;;5055162;28;20274;-69
2021/04/15 05:56:32;;;;;;;;;;;;;;;;;;5039909;28;20274;-69
2021/04/15 05:58:58;;;;;;;;;;;;;;;;;;5057808;28;19912;-64
2021/04/15 06:01:24;;;;;;;;;;;;;;;;;;5021305;28;19909;-68
2021/04/15 06:03:51;;;;;;;;;;;;;;;;;;5028961;28;20317;-67
2021/04/15 06:06:17;;;;;;;;;;;;;;;;;;5035141;28;20003;-69
2021/04/15 06:08:43;;;;;;;;;;;;;;;;;;5035089;28;19991;-66
2021/04/15 06:11:09;;;;;;;;;;;;;;;;;;5034995;28;19967;-65
2021/04/15 06:13:35;;;;;;;;;;;;;;;;;;5034965;28;19905;-68
2021/04/15 06:16:01;;;;;;;;;;;;;;;;;;5034584;28;19921;-66
2021/04/15 06:18:27;;;;;;;;;;;;;;;;;;5034689;28;20043;-69
2021/04/15 06:20:52;;;;;;;;;;;;;;;;;;5034234;28;19966;-68
2021/04/15 06:23:18;;;;;;;;;;;;;;;;;;5034247;28;19909;-67
2021/04/15 06:25:44;;;;;;;;;;;;;;;;;;5034762;28;20256;-67
2021/04/15 06:28:11;;;;;;;;;;;;;;;;;;5033158;28;19924;-67
2021/04/15 06:30:36;;;;;;;;;;;;;;;;;;5023314;28;19963;-68
2021/04/15 06:33:02;;;;;;;;;;;;;;;;;;5032496;28;19999;-66
2021/04/15 06:35:28;;;;;;;;;;;;;;;;;;5016525;28;19913;-64
2021/04/15 06:37:54;;;;;;;;;;;;;;;;;;5034872;28;19912;-66
2021/04/15 06:40:20;;;;;;;;;;;;;;;;;;5034780;28;19931;-64
2021/04/15 06:42:46;;;;;;;;;;;;;;;;;;5034500;28;20362;-64
2021/04/15 06:45:12;;;;;;;;;;;;;;;;;;5031110;28;19917;-65
2021/04/15 06:47:39;;;;;;;;;;;;;;;;;;5035947;28;19932;-63
2021/04/15 06:50:05;;;;;;;;;;;;;;;;;;5048072;28;20007;-63
2021/04/15 06:52:32;;;;;;;;;;;;;;;;;;5031508;28;19999;-64
2021/04/15 06:54:58;;;;;;;;;;;;;;;;;;5034184;28;19928;-64
2021/04/15 06:57:24;;;;;;;;;;;;;;;;;;5046335;28;20274;-64
2021/04/15 06:59:50;;;;;;;;;;;;;;;;;;5043893;28;20315;-64
2021/04/15 07:02:16;;;;;;;;;;;;;;;;;;5027081;28;20036;-65
2021/04/15 07:04:42;;;;;;;;;;;;;;;;;;5039267;28;20000;-64
2021/04/15 07:07:08;;;;;;;;;;;;;;;;;;5035849;28;20350;-64
2021/04/15 07:09:34;;;;;;;;;;;;;;;;;;5021701;28;19905;-65
2021/04/15 07:12:00;;;;;;;;;;;;;;;;;;5016610;28;19968;-64
2021/04/15 07:14:28;;;;;;;;;;;;;;;;;;5041473;28;20281;-65
2021/04/15 07:16:54;;;;;;;;;;;;;;;;;;5017920;28;20000;-63
2021/04/15 07:19:20;;;;;;;;;;;;;;;;;;5019977;28;20004;-65
2021/04/15 07:21:46;;;;;;;;;;;;;;;;;;5014975;28;19909;-65
2021/04/15 07:24:12;;;;;;;;;;;;;;;;;;5016251;28;19936;-66
2021/04/15 07:26:38;;;;;;;;;;;;;;;;;;5014307;28;20339;-68
2021/04/15 07:29:04;;;;;;;;;;;;;;;;;;5017883;28;20390;-66
2021/04/15 07:31:30;;;;;;;;;;;;;;;;;;5013176;28;19909;-65
2021/04/15 07:33:56;;;;;;;;;;;;;;;;;;5018393;28;19915;-66
2021/04/15 07:36:23;;;;;;;;;;;;;;;;;;5017286;28;19988;-66
2021/04/15 07:38:49;;;;;;;;;;;;;;;;;;5019794;28;19916;-66
2021/04/15 07:41:15;;;;;;;;;;;;;;;;;;5031661;28;19909;-63
2021/04/15 07:43:41;;;;;;;;;;;;;;;;;;5031497;28;19913;-66
2021/04/15 07:46:07;;;;;;;;;;;;;;;;;;5023544;28;20019;-59
2021/04/15 07:48:32;;;;;;;;;;;;;;;;;;5013683;28;20359;-62
2021/04/15 07:50:58;;;;;;;;;;;;;;;;;;5031284;28;20004;-61
2021/04/15 07:53:24;;;;;;;;;;;;;;;;;;5031856;28;19992;-62
2021/04/15 07:55:50;;;;;;;;;;;;;;;;;;5027952;28;20007;-61
2021/04/15 07:58:16;;;;;;;;;;;;;;;;;;5013022;28;19909;-61
2021/04/15 08:00:42;;;;;;;;;;;;;;;;;;5031452;28;19909;-62
2021/04/15 08:03:08;;;;;;;;;;;;;;;;;;5032050;28;19909;-61
2021/04/15 08:05:34;;;;;;;;;;;;;;;;;;5031050;28;19905;-61
2021/04/15 08:08:00;;;;;;;;;;;;;;;;;;5031247;28;21775;-61
2021/04/15 08:10:26;;;;;;;;;;;;;;;;;;5031222;28;19905;-62
2021/04/15 08:12:53;;;;;;;;;;;;;;;;;;5032433;28;19905;-60
2021/04/15 08:15:20;;;;;;;;;;;;;;;;;;5031642;28;19916;-61
2021/04/15 08:17:46;;;;;;;;;;;;;;;;;;5031108;28;20313;-61
2021/04/15 08:20:12;;;;;;;;;;;;;;;;;;5030869;28;20343;-62
2021/04/15 08:22:38;;;;;;;;;;;;;;;;;;5031552;28;19916;-62
2021/04/15 08:25:04;;;;;;;;;;;;;;;;;;5032928;28;19905;-65
2021/04/15 08:27:30;;;;;;;;;;;;;;;;;;5031775;28;19947;-63
2021/04/15 08:29:56;;;;;;;;;;;;;;;;;;5032776;28;19912;-64
2021/04/15 08:32:21;;;;;;;;;;;;;;;;;;5032478;28;19905;-64
2021/04/15 08:34:47;;;;;;;;;;;;;;;;;;5033355;28;20269;-64
2021/04/15 08:37:13;;;;;;;;;;;;;;;;;;5031869;28;20350;-64
2021/04/15 08:39:39;;;;;;;;;;;;;;;;;;5031474;28;19996;-68
2021/04/15 08:42:05;;;;;;;;;;;;;;;;;;5020335;28;20343;-69
2021/04/15 08:44:31;;;;;;;;;;;;;;;;;;5030598;28;19928;-71
2021/04/15 08:46:57;;;;;;;;;;;;;;;;;;5028171;28;19920;-72
2021/04/15 08:49:23;;;;;;;;;;;;;;;;;;5030302;28;19974;-71
2021/04/15 08:51:49;;;;;;;;;;;;;;;;;;5030686;28;19909;-71
2021/04/15 08:54:15;;;;;;;;;;;;;;;;;;5030821;28;19909;-70
2021/04/15 08:56:41;;;;;;;;;;;;;;;;;;5028820;28;19944;-70
2021/04/15 08:59:07;;;;;;;;;;;;;;;;;;5026632;28;20023;-64
2021/04/15 09:01:32;;;;;;;;;;;;;;;;;;5028140;28;19905;-64
2021/04/15 09:04:00;;;;;;;;;;;;;;;;;;5024606;28;19909;-64
2021/04/15 09:06:26;;;;;;;;;;;;;;;;;;5030308;28;19905;-65
2021/04/15 09:08:51;;;;;;;;;;;;;;;;;;5030401;28;19919;-65
2021/04/15 09:11:17;;;;;;;;;;;;;;;;;;5029950;28;20378;-66
2021/04/15 09:13:43;;;;;;;;;;;;;;;;;;5030293;28;19964;-64
2021/04/15 09:16:09;;;;;;;;;;;;;;;;;;5029297;28;20229;-63
2021/04/15 09:18:35;;;;;;;;;;;;;;;;;;5029611;28;20267;-65
2021/04/15 09:21:01;;;;;;;;;;;;;;;;;;5029328;28;22365;-61
2021/04/15 09:23:30;;;;;;;;;;;;;;;;;;5029687;28;20015;-63
2021/04/15 09:25:56;;;;;;;;;;;;;;;;;;5029154;28;20364;-60
2021/04/15 09:28:22;;;;;;;;;;;;;;;;;;5029268;28;19968;-61
2021/04/15 09:30:48;;;;;;;;;;;;;;;;;;5029849;28;19905;-63
2021/04/15 09:33:14;;;;;;;;;;;;;;;;;;5029726;28;20359;-59
2021/04/15 09:35:40;;;;;;;;;;;;;;;;;;5028842;28;19916;-61
2021/04/15 09:38:06;;;;;;;;;;;;;;;;;;5028971;28;19913;-60
2021/04/15 09:40:32;;;;;;;;;;;;;;;;;;5026199;28;20019;-61
2021/04/15 09:42:58;;;;;;;;;;;;;;;;;;5025600;28;19996;-59
2021/04/15 09:45:24;;;;;;;;;;;;;;;;;;5011834;28;20348;-60
2021/04/15 09:47:50;;;;;;;;;;;;;;;;;;5009432;28;20109;-60
2021/04/15 09:50:19;;;;;;;;;;;;;;;;;;5011345;28;19916;-62
2021/04/15 09:52:45;;;;;;;;;;;;;;;;;;5017021;28;19910;-56
2021/04/15 09:55:11;;;;;;;;;;;;;;;;;;5019810;28;20012;-60
2021/04/15 09:57:37;;;;;;;;;;;;;;;;;;5015324;28;19920;-60
2021/04/15 10:00:03;;;;;;;;;;;;;;;;;;5023523;28;19916;-60
2021/04/15 10:02:29;;;;;;;;;;;;;;;;;;5026217;28;19999;-60
2021/04/15 10:04:55;;;;;;;;;;;;;;;;;;5028928;28;19909;-61
2021/04/15 10:07:21;;;;;;;;;;;;;;;;;;5031220;28;19924;-60
2021/04/15 10:09:47;;;;;;;;;;;;;;;;;;5029569;28;19909;-61
2021/04/15 10:12:13;;;;;;;;;;;;;;;;;;5025364;28;19910;-72
2021/04/15 10:14:39;;;;;;;;;;;;;;;;;;5019357;28;20817;-58
2021/04/15 10:17:05;;;;;;;;;;;;;;;;;;5019844;28;20406;-61
2021/04/15 10:19:32;;;;;;;;;;;;;;;;;;5021847;28;19944;-60
2021/04/15 10:21:58;;;;;;;;;;;;;;;;;;5013140;28;19984;-58
2021/04/15 10:24:24;;;;;;;;;;;;;;;;;;5032654;28;20009;-58
2021/04/15 10:26:50;;;;;;;;;;;;;;;;;;5032968;28;19962;-58
2021/04/15 10:29:16;;;;;;;;;;;;;;;;;;5031485;28;19917;-57
2021/04/15 10:31:42;;;;;;;;;;;;;;;;;;5019424;28;19924;-58
2021/04/15 10:34:08;;;;;;;;;;;;;;;;;;5014427;28;19909;-58
2021/04/15 10:36:34;;;;;;;;;;;;;;;;;;5018047;28;19912;-57
2021/04/15 10:39:00;;;;;;;;;;;;;;;;;;5020974;28;20348;-57
2021/04/15 10:41:26;;;;;;;;;;;;;;;;;;5019616;28;19909;-58
2021/04/15 10:43:52;;;;;;;;;;;;;;;;;;5035009;28;19916;-57
2021/04/15 10:46:18;;;;;;;;;;;;;;;;;;5041017;28;19961;-58
2021/04/15 10:48:44;;;;;;;;;;;;;;;;;;5038807;28;19913;-58
2021/04/15 10:51:10;;;;;;;;;;;;;;;;;;5034426;28;20461;-58
2021/04/15 10:53:36;;;;;;;;;;;;;;;;;;5034232;28;20000;-57
2021/04/15 10:56:01;;;;;;;;;;;;;;;;;;5041576;28;19993;-58
2021/04/15 10:58:28;;;;;;;;;;;;;;;;;;5034683;28;20004;-58
2021/04/15 11:00:55;;;;;;;;;;;;;;;;;;5033979;28;19905;-59
2021/04/15 11:03:21;;;;;;;;;;;;;;;;;;5034449;28;20065;-58
2021/04/15 11:05:47;;;;;;;;;;;;;;;;;;5014341;28;19906;-58
2021/04/15 11:08:13;;;;;;;;;;;;;;;;;;5031971;28;19963;-58
2021/04/15 11:10:39;;;;;;;;;;;;;;;;;;5034769;28;19912;-58
2021/04/15 11:13:05;;;;;;;;;;;;;;;;;;5033866;28;19909;-58
2021/04/15 11:15:31;;;;;;;;;;;;;;;;;;5034375;28;20270;-58
2021/04/15 11:17:57;;;;;;;;;;;;;;;;;;5029838;28;20375;-58
2021/04/15 11:20:23;;;;;;;;;;;;;;;;;;5025113;28;19912;-59
2021/04/15 11:22:49;;;;;;;;;;;;;;;;;;5033410;28;19909;-58
2021/04/15 11:25:16;;;;;;;;;;;;;;;;;;5022352;28;19978;-57
2021/04/15 11:27:42;;;;;;;;;;;;;;;;;;5028630;28;19917;-60
2021/04/15 11:30:08;;;;;;;;;;;;;;;;;;5028049;28;19909;-59
2021/04/15 11:32:34;;;;;;;;;;;;;;;;;;5027657;28;19905;-59
2021/04/15 11:35:00;;;;;;;;;;;;;;;;;;5033282;28;20116;-58
2021/04/15 11:37:27;;;;;;;;;;;;;;;;;;5023651;28;19917;-58
2021/04/15 11:39:53;;;;;;;;;;;;;;;;;;5032715;28;19930;-59
2021/04/15 11:42:18;;;;;;;;;;;;;;;;;;5034304;28;19911;-59
2021/04/15 11:44:47;;;;;;;;;;;;;;;;;;5021734;28;20030;-58
2021/04/15 11:47:13;;;;;;;;;;;;;;;;;;5017529;28;20283;-58
2021/04/15 11:49:39;;;;;;;;;;;;;;;;;;5027220;28;19968;-59
2021/04/15 11:52:06;;;;;;;;;;;;;;;;;;5033292;28;19905;-58
2021/04/15 11:54:32;;;;;;;;;;;;;;;;;;5030434;28;19912;-57
2021/04/15 11:56:58;;;;;;;;;;;;;;;;;;5020444;28;19909;-58
2021/04/15 11:59:24;;;;;;;;;;;;;;;;;;5033426;28;19975;-59
2021/04/15 12:01:50;;;;;;;;;;;;;;;;;;5017196;28;19915;-60
2021/04/15 12:04:16;;;;;;;;;;;;;;;;;;5031541;28;20088;-60
2021/04/15 12:06:42;;;;;;;;;;;;;;;;;;5024904;28;20008;-59
2021/04/15 12:09:08;;;;;;;;;;;;;;;;;;5021366;28;19960;-58
2021/04/15 12:11:35;;;;;;;;;;;;;;;;;;5019793;28;20322;-58
2021/04/15 12:14:00;;;;;;;;;;;;;;;;;;5015227;28;19919;-57
2021/04/15 12:16:26;;;;;;;;;;;;;;;;;;5014972;28;19913;-58
2021/04/15 12:18:52;;;;;;;;;;;;;;;;;;5016232;28;19913;-58
2021/04/15 12:21:18;;;;;;;;;;;;;;;;;;5018420;28;19917;-58
2021/04/15 12:23:44;;;;;;;;;;;;;;;;;;5014430;28;19905;-58
2021/04/15 12:26:10;;;;;;;;;;;;;;;;;;5026793;28;19909;-58
2021/04/15 12:28:36;;;;;;;;;;;;;;;;;;5012557;28;20386;-59
2021/04/15 12:31:02;;;;;;;;;;;;;;;;;;5021278;28;19905;-58
2021/04/15 12:33:28;;;;;;;;;;;;;;;;;;5016491;28;19917;-59
2021/04/15 12:35:54;;;;;;;;;;;;;;;;;;5016436;28;19906;-58
2021/04/15 12:38:20;;;;;;;;;;;;;;;;;;4996556;28;19913;-57
2021/04/15 12:40:46;;;;;;;;;;;;;;;;;;5012799;28;19912;-57
2021/04/15 12:43:12;;;;;;;;;;;;;;;;;;5011183;28;19988;-57
2021/04/15 12:45:38;;;;;;;;;;;;;;;;;;5014819;28;19984;-58
2021/04/15 12:48:04;;;;;;;;;;;;;;;;;;5010290;28;19996;-59
2021/04/15 12:50:30;;;;;;;;;;;;;;;;;;5013055;28;19918;-58
2021/04/15 12:52:56;;;;;;;;;;;;;;;;;;5013871;28;20264;-57
2021/04/15 12:55:22;;;;;;;;;;;;;;;;;;5011427;28;19906;-58
2021/04/15 12:57:48;;;;;;;;;;;;;;;;;;5016261;28;19915;-57
2021/04/15 13:00:14;;;;;;;;;;;;;;;;;;5014175;28;19960;-57
2021/04/15 13:02:40;;;;;;;;;;;;;;;;;;5012418;28;19913;-59
2021/04/15 13:05:06;;;;;;;;;;;;;;;;;;5014383;28;20377;-57
2021/04/15 13:07:34;;;;;;;;;;;;;;;;;;5012502;28;19920;-57
2021/04/15 13:10:00;;;;;;;;;;;;;;;;;;5012437;28;20279;-56
2021/04/15 13:12:26;;;;;;;;;;;;;;;;;;5012201;28;19905;-58
2021/04/15 13:14:52;;;;;;;;;;;;;;;;;;5015536;28;19916;-59
2021/04/15 13:17:18;;;;;;;;;;;;;;;;;;5012481;28;20239;-58
2021/04/15 13:19:44;;;;;;;;;;;;;;;;;;5012841;28;19905;-58
2021/04/15 13:22:10;;;;;;;;;;;;;;;;;;5015864;28;19912;-60
2021/04/15 13:24:36;;;;;;;;;;;;;;;;;;5012114;28;19912;-58
2021/04/15 13:27:02;;;;;;;;;;;;;;;;;;5017284;28;19999;-58
2021/04/15 13:29:28;;;;;;;;;;;;;;;;;;5013540;28;20055;-58
2021/04/15 13:31:54;;;;;;;;;;;;;;;;;;5016925;28;19945;-58
2021/04/15 13:34:20;;;;;;;;;;;;;;;;;;5016348;28;19928;-59
2021/04/15 13:36:46;;;;;;;;;;;;;;;;;;5015775;28;19916;-57
2021/04/15 13:39:13;;;;;;;;;;;;;;;;;;5015858;28;20259;-58
2021/04/15 13:41:39;;;;;;;;;;;;;;;;;;5014766;28;19909;-57
2021/04/15 13:44:06;;;;;;;;;;;;;;;;;;5021190;28;20000;-58
2021/04/15 13:46:32;;;;;;;;;;;;;;;;;;5018591;28;19918;-58
2021/04/15 13:48:59;;;;;;;;;;;;;;;;;;4998084;28;20368;-58
2021/04/15 13:51:25;;;;;;;;;;;;;;;;;;5019302;28;19949;-58
2021/04/15 13:53:51;;;;;;;;;;;;;;;;;;5013961;28;19951;-59
2021/04/15 13:56:17;;;;;;;;;;;;;;;;;;5006304;28;19909;-58
2021/04/15 13:58:43;;;;;;;;;;;;;;;;;;5037875;28;19913;-60
2021/04/15 14:01:09;;;;;;;;;;;;;;;;;;5037295;28;19905;-58
2021/04/15 14:03:35;;;;;;;;;;;;;;;;;;5029859;28;20267;-58
2021/04/15 14:06:01;;;;;;;;;;;;;;;;;;5026707;28;20294;-58
2021/04/15 14:08:27;;;;;;;;;;;;;;;;;;5035496;28;19967;-58
2021/04/15 14:10:52;;;;;;;;;;;;;;;;;;5035015;28;20007;-58
2021/04/15 14:13:18;;;;;;;;;;;;;;;;;;5035169;28;20311;-59
2021/04/15 14:15:46;;;;;;;;;;;;;;;;;;5034917;28;19952;-57
2021/04/15 14:18:12;;;;;;;;;;;;;;;;;;5035235;28;19935;-57
2021/04/15 14:20:38;;;;;;;;;;;;;;;;;;5029699;28;20426;-57
2021/04/15 14:23:04;;;;;;;;;;;;;;;;;;5026357;28;19951;-57
2021/04/15 14:25:29;;;;;;;;;;;;;;;;;;5034412;28;19905;-57
2021/04/15 14:27:55;;;;;;;;;;;;;;;;;;5025905;28;19968;-57
2021/04/15 14:30:21;;;;;;;;;;;;;;;;;;5029532;28;19955;-58
2021/04/15 14:32:47;;;;;;;;;;;;;;;;;;5034998;28;19944;-57
2021/04/15 14:35:13;;;;;;;;;;;;;;;;;;5034666;28;19912;-57
2021/04/15 14:37:39;;;;;;;;;;;;;;;;;;5034173;28;19913;-58
2021/04/15 14:40:05;;;;;;;;;;;;;;;;;;5034672;28;20274;-57
2021/04/15 14:42:31;;;;;;;;;;;;;;;;;;5033283;28;19916;-59
2021/04/15 14:44:57;;;;;;;;;;;;;;;;;;5025089;28;19924;-57
2021/04/15 14:47:23;;;;;;;;;;;;;;;;;;5015497;28;19913;-57
2021/04/15 14:49:49;;;;;;;;;;;;;;;;;;5034542;28;19905;-57
2021/04/15 14:52:15;;;;;;;;;;;;;;;;;;5034544;28;19906;-57
2021/04/15 14:54:41;;;;;;;;;;;;;;;;;;5034542;28;20009;-57
2021/04/15 14:57:06;;;;;;;;;;;;;;;;;;5024334;28;19912;-58
2021/04/15 14:59:32;;;;;;;;;;;;;;;;;;5014100;28;20421;-58
2021/04/15 15:01:58;;;;;;;;;;;;;;;;;;5014527;28;19905;-58
2021/04/15 15:04:24;;;;;;;;;;;;;;;;;;5014322;28;20000;-58
2021/04/15 15:06:50;;;;;;;;;;;;;;;;;;5014574;28;19975;-57
2021/04/15 15:09:16;;;;;;;;;;;;;;;;;;5013746;28;19912;-58
2021/04/15 15:11:42;;;;;;;;;;;;;;;;;;5012897;28;19952;-57
2021/04/15 15:14:08;;;;;;;;;;;;;;;;;;5014117;28;19957;-57
2021/04/15 15:16:35;;;;;;;;;;;;;;;;;;4996028;28;19914;-57
2021/04/15 15:19:02;;;;;;;;;;;;;;;;;;5026957;28;19955;-60
2021/04/15 15:21:27;;;;;;;;;;;;;;;;;;5036070;28;19909;-58
2021/04/15 15:23:53;;;;;;;;;;;;;;;;;;5028457;28;20517;-58
2021/04/15 15:26:19;;;;;;;;;;;;;;;;;;5020547;28;20320;-57
2021/04/15 15:28:45;;;;;;;;;;;;;;;;;;5021227;28;19918;-58
2021/04/15 15:31:11;;;;;;;;;;;;;;;;;;5013621;28;19956;-57
2021/04/15 15:33:37;;;;;;;;;;;;;;;;;;5013908;28;19905;-58
2021/04/15 15:36:03;;;;;;;;;;;;;;;;;;5027112;28;19905;-58
2021/04/15 15:38:29;;;;;;;;;;;;;;;;;;5014236;28;19912;-56
2021/04/15 15:40:55;;;;;;;;;;;;;;;;;;5013356;28;19905;-58
2021/04/15 15:43:21;;;;;;;;;;;;;;;;;;5014058;28;19999;-58
2021/04/15 15:45:47;;;;;;;;;;;;;;;;;;5029124;28;19916;-60
2021/04/15 15:48:13;;;;;;;;;;;;;;;;;;5051323;28;19917;-58
2021/04/15 15:50:39;;;;;;;;;;;;;;;;;;5053188;28;19905;-58
2021/04/15 15:53:05;;;;;;;;;;;;;;;;;;5051369;28;19911;-59
2021/04/15 15:55:31;;;;;;;;;;;;;;;;;;5033724;28;19999;-57
2021/04/15 15:57:57;;;;;;;;;;;;;;;;;;5039195;28;19955;-58
2021/04/15 16:00:25;;;;;;;;;;;;;;;;;;5032880;28;19905;-58
2021/04/15 16:02:51;;;;;;;;;;;;;;;;;;5033061;28;19908;-58
2021/04/15 16:05:18;;;;;;;;;;;;;;;;;;5029024;28;19909;-57
2021/04/15 16:07:44;;;;;;;;;;;;;;;;;;5014485;28;20418;-56
2021/04/15 16:10:10;;;;;;;;;;;;;;;;;;5018353;28;19909;-58
2021/04/15 16:12:40;;;;;;;;;;;;;;;;;;5014796;28;19905;-58
2021/04/15 16:15:06;;;;;;;;;;;;;;;;;;5012630;28;19917;-58
2021/04/15 16:17:32;;;;;;;;;;;;;;;;;;5015027;28;20354;-58
2021/04/15 16:19:57;;;;;;;;;;;;;;;;;;5014578;28;20122;-58
2021/04/15 16:22:26;;;;;;;;;;;;;;;;;;5015315;28;19916;-57
2021/04/15 16:24:52;;;;;;;;;;;;;;;;;;5014845;28;19975;-58
2021/04/15 16:27:18;;;;;;;;;;;;;;;;;;5016334;28;20359;-58
2021/04/15 16:29:48;;;;;;;;;;;;;;;;;;5014554;28;20394;-58
2021/04/15 16:32:15;;;;;;;;;;;;;;;;;;5014470;28;19909;-58
2021/04/15 16:34:41;;;;;;;;;;;;;;;;;;5017019;28;19920;-58
2021/04/15 16:37:07;;;;;;;;;;;;;;;;;;5012467;28;19909;-58